Time;durP1;ratioP1;P1;durP2;ratioP2;P2;SDS_P1;SDS_P2;PMS_P1;PMS_P2;Temp;Humidity;BMP_temperature;BMP_pressure;BME280_temperature;BME280_humidity;BME280_pressure;Samples;Min_cycle;Max_cycle;Signal;HPM_P1;HPM_P2
2023/10/13 00:01:19;;;;;;;67.57;24.88;;;;;;;;;;5075042;28;20063;-67
2023/10/13 00:03:45;;;;;;;77.88;26.20;;;;;;;;;;5075982;28;20048;-67
2023/10/13 00:06:11;;;;;;;75.10;26.67;;;;;;;;;;5074287;28;20506;-68
2023/10/13 00:08:39;;;;;;;71.13;26.67;;;;;;;;;;5075276;28;20044;-68
2023/10/13 00:11:05;;;;;;;72.13;25.63;;;;;;;;;;5058863;28;20056;-67
2023/10/13 00:13:42;;;;;;;71.33;25.57;;;;;;;;;;5074755;28;20051;-67
2023/10/13 00:16:09;;;;;;;75.95;25.77;;;;;;;;;;5075523;28;20057;-66
2023/10/13 00:18:41;;;;;;;68.47;26.58;;;;;;;;;;5076462;28;20060;-66
2023/10/13 00:21:42;;;;;;;66.18;26.25;;;;;;;;;;5075744;28;20469;-68
2023/10/13 00:24:01;;;;;;;69.95;26.25;;;;;;;;;;5073125;28;20041;-67
2023/10/13 00:26:28;;;;;;;69.30;27.10;;;;;;;;;;5075609;28;20057;-67
2023/10/13 00:31:36;;;;;;;69.38;26.27;;;;;;;;;;5075429;28;20083;-68
2023/10/13 00:34:27;;;;;;;75.15;27.38;;;;;;;;;;5058073;28;20377;-67
2023/10/13 00:37:17;;;;;;;68.07;26.38;;;;;;;;;;5075354;28;20063;-66
2023/10/13 00:39:46;;;;;;;71.95;27.38;;;;;;;;;;5076142;28;20056;-66
2023/10/13 00:42:30;;;;;;;70.85;27.83;;;;;;;;;;5074818;28;20503;-67
2023/10/13 00:44:56;;;;;;;76.10;26.35;;;;;;;;;;5060278;28;20098;-68
2023/10/13 00:50:11;;;;;;;78.13;27.70;;;;;;;;;;5075390;28;20448;-67
2023/10/13 00:52:41;;;;;;;76.60;27.88;;;;;;;;;;5073824;28;20057;-66
2023/10/13 00:55:09;;;;;;;79.13;27.90;;;;;;;;;;5075058;28;20057;-67
2023/10/13 00:57:36;;;;;;;79.28;27.83;;;;;;;;;;5074785;28;20171;-67
2023/10/13 01:00:12;;;;;;;71.15;27.50;;;;;;;;;;5074802;28;20052;-67
2023/10/13 01:02:38;;;;;;;77.53;27.67;;;;;;;;;;5074573;28;20057;-66
2023/10/13 01:05:07;;;;;;;82.75;28.63;;;;;;;;;;5074596;28;20063;-67
2023/10/13 01:07:37;;;;;;;74.85;26.92;;;;;;;;;;5074771;28;20094;-68
2023/10/13 01:10:04;;;;;;;62.85;23.20;;;;;;;;;;5074487;28;20053;-68
2023/10/13 01:12:39;;;;;;;71.40;26.52;;;;;;;;;;5108206;28;20036;-66
2023/10/13 01:15:10;;;;;;;71.93;25.63;;;;;;;;;;5073929;28;20048;-66
2023/10/13 01:17:37;;;;;;;72.13;26.60;;;;;;;;;;5074074;28;20049;-67
2023/10/13 01:20:04;;;;;;;68.32;25.88;;;;;;;;;;5074342;28;20041;-71
2023/10/13 01:22:32;;;;;;;69.22;25.95;;;;;;;;;;5073936;28;20044;-68
2023/10/13 01:25:07;;;;;;;64.00;24.52;;;;;;;;;;5074388;28;20106;-67
2023/10/13 01:27:38;;;;;;;65.25;25.20;;;;;;;;;;5074259;28;20170;-67
2023/10/13 01:30:22;;;;;;;66.47;25.65;;;;;;;;;;5074331;28;20511;-68
2023/10/13 01:32:50;;;;;;;62.30;23.95;;;;;;;;;;5074262;28;20092;-65
2023/10/13 01:35:18;;;;;;;61.53;23.45;;;;;;;;;;5074614;28;20051;-69
2023/10/13 01:37:45;;;;;;;64.05;24.30;;;;;;;;;;5075710;28;20490;-67
2023/10/13 01:40:18;;;;;;;60.00;24.25;;;;;;;;;;5075038;28;20052;-67
2023/10/13 01:42:45;;;;;;;59.53;22.55;;;;;;;;;;5076225;28;20063;-66
2023/10/13 01:45:14;;;;;;;62.17;23.13;;;;;;;;;;5074305;28;20149;-66
2023/10/13 01:47:41;;;;;;;57.08;22.13;;;;;;;;;;5074001;28;20094;-67
2023/10/13 01:50:15;;;;;;;56.00;21.70;;;;;;;;;;5073556;28;20098;-70
2023/10/13 01:52:42;;;;;;;55.97;21.90;;;;;;;;;;5073861;28;20150;-66
2023/10/13 01:55:10;;;;;;;55.03;21.08;;;;;;;;;;5073782;28;20062;-69
2023/10/13 01:57:37;;;;;;;50.38;20.20;;;;;;;;;;5073818;28;20048;-68
2023/10/13 02:00:11;;;;;;;52.53;20.83;;;;;;;;;;5074653;28;20049;-66
2023/10/13 02:02:44;;;;;;;50.53;19.88;;;;;;;;;;5072583;28;20374;-66
2023/10/13 02:05:11;;;;;;;49.05;21.52;;;;;;;;;;5073764;28;20048;-67
2023/10/13 02:07:38;;;;;;;;;;;;;;;;;;5073391;28;20061;-66
2023/10/13 02:10:05;;;;;;;46.00;20.30;;;;;;;;;;5074269;28;20261;-67
2023/10/13 02:12:44;;;;;;;50.58;20.00;;;;;;;;;;5074352;28;20044;-66
2023/10/13 02:15:20;;;;;;;51.53;20.42;;;;;;;;;;5040951;28;20036;-70
2023/10/13 02:17:51;;;;;;;49.95;20.45;;;;;;;;;;5074535;28;20045;-67
2023/10/13 02:20:18;;;;;;;50.00;20.95;;;;;;;;;;5074212;28;20052;-67
2023/10/13 02:22:50;;;;;;;44.88;18.90;;;;;;;;;;5072312;28;20370;-68
2023/10/13 02:25:25;;;;;;;49.60;19.77;;;;;;;;;;5074196;28;20048;-69
2023/10/13 02:27:58;;;;;;;46.80;18.33;;;;;;;;;;5073312;28;20048;-65
2023/10/13 02:30:25;;;;;;;50.03;19.13;;;;;;;;;;5073747;28;20056;-67
2023/10/13 02:32:53;;;;;;;;;;;;;;;;;;5073255;28;20484;-67
2023/10/13 02:35:29;;;;;;;46.10;18.75;;;;;;;;;;5072524;28;20375;-66
2023/10/13 02:37:57;;;;;;;48.75;19.20;;;;;;;;;;5074161;28;20052;-68
2023/10/13 02:40:24;;;;;;;47.42;18.98;;;;;;;;;;5073362;28;20119;-69
2023/10/13 02:42:50;;;;;;;46.30;18.53;;;;;;;;;;5073560;28;20383;-67
2023/10/13 02:45:20;;;;;;;52.00;19.83;;;;;;;;;;5073723;28;20042;-70
2023/10/13 02:48:09;;;;;;;46.78;17.25;;;;;;;;;;5073456;28;20059;-67
2023/10/13 02:50:33;;;;;;;51.53;18.98;;;;;;;;;;5072771;28;20072;-67
2023/10/13 02:52:59;;;;;;;43.25;17.92;;;;;;;;;;5072315;28;20047;-68
2023/10/13 02:55:25;;;;;;;45.70;18.37;;;;;;;;;;5071676;28;20114;-68
2023/10/13 02:57:55;;;;;;;45.47;17.67;;;;;;;;;;5071969;28;20094;-67
2023/10/13 03:00:23;;;;;;;42.47;17.90;;;;;;;;;;5071845;28;20040;-67
2023/10/13 03:02:58;;;;;;;49.28;18.52;;;;;;;;;;5073355;28;20048;-69
2023/10/13 03:05:28;;;;;;;43.45;16.73;;;;;;;;;;5072545;28;20037;-66
2023/10/13 03:07:55;;;;;;;49.65;18.52;;;;;;;;;;5073253;28;20044;-68
2023/10/13 03:10:21;;;;;;;53.83;19.85;;;;;;;;;;5072283;28;20055;-67
2023/10/13 03:12:50;;;;;;;51.70;18.75;;;;;;;;;;5055562;28;20049;-68
2023/10/13 03:17:43;;;;;;;52.90;20.03;;;;;;;;;;5072921;28;20040;-67
2023/10/13 03:20:23;;;;;;;50.88;19.85;;;;;;;;;;5072782;28;20468;-67
2023/10/13 03:22:53;;;;;;;52.83;20.77;;;;;;;;;;5072299;28;20063;-67
2023/10/13 03:25:29;;;;;;;54.03;21.33;;;;;;;;;;5072826;28;20033;-67
2023/10/13 03:30:35;;;;;;;51.45;19.88;;;;;;;;;;5072852;28;20049;-67
2023/10/13 03:33:09;;;;;;;47.08;20.42;;;;;;;;;;5072607;28;20495;-67
2023/10/13 03:35:43;;;;;;;49.55;20.60;;;;;;;;;;5073247;28;20053;-68
2023/10/13 03:38:19;;;;;;;47.78;20.00;;;;;;;;;;5071709;28;20041;-66
2023/10/13 03:40:49;;;;;;;48.42;20.25;;;;;;;;;;5074901;28;20098;-67
2023/10/13 03:43:22;;;;;;;47.88;21.13;;;;;;;;;;5076538;28;20465;-68
2023/10/13 03:45:52;;;;;;;46.60;19.88;;;;;;;;;;5075141;28;20075;-68
2023/10/13 03:51:03;;;;;;;46.80;20.23;;;;;;;;;;5076123;28;20036;-68
2023/10/13 03:53:33;;;;;;;51.13;19.45;;;;;;;;;;5076840;28;20433;-68
2023/10/13 03:56:14;;;;;;;46.85;19.23;;;;;;;;;;5076025;28;20063;-68
2023/10/13 03:58:45;;;;;;;45.75;18.52;;;;;;;;;;5076118;28;20044;-67
2023/10/13 04:01:14;;;;;;;47.08;19.58;;;;;;;;;;5076570;28;20086;-67
2023/10/13 04:03:56;;;;;;;46.42;19.48;;;;;;;;;;5076180;28;20373;-67
2023/10/13 04:06:48;;;;;;;44.45;19.58;;;;;;;;;;5076732;28;20066;-67
2023/10/13 04:10:10;;;;;;;46.20;18.77;;;;;;;;;;5076350;28;20055;-66
2023/10/13 04:15:23;;;;;;;49.05;19.50;;;;;;;;;;5076318;28;20488;-67
2023/10/13 04:17:44;;;;;;;44.38;17.70;;;;;;;;;;5073300;28;20128;-68
2023/10/13 04:28:15;;;;;;;41.92;17.38;;;;;;;;;;5054053;28;20495;-67
2023/10/13 04:33:38;;;;;;;47.05;18.00;;;;;;;;;;5075667;28;20048;-68
2023/10/13 04:36:16;;;;;;;42.42;16.95;;;;;;;;;;5059593;28;20079;-68
2023/10/13 04:41:41;;;;;;;41.33;18.17;;;;;;;;;;5075518;28;20047;-69
2023/10/13 04:49:35;;;;;;;45.10;17.65;;;;;;;;;;5075640;28;20131;-68
2023/10/13 04:57:25;;;;;;;35.63;15.25;;;;;;;;;;5074552;28;20372;-67
2023/10/13 05:51:57;;;;;;;20.50;10.20;;;;;;;;;;5074410;28;20135;-66
2023/10/13 06:30:33;;;;;;;18.40;7.25;;;;;;;;;;5071382;28;20056;-65
2023/10/13 06:33:01;;;;;;;16.08;6.35;;;;;;;;;;5073366;28;20067;-67
2023/10/13 06:35:27;;;;;;;16.08;6.80;;;;;;;;;;5071847;28;20041;-65
2023/10/13 06:37:53;;;;;;;20.10;6.70;;;;;;;;;;5073267;28;20063;-64
2023/10/13 06:40:25;;;;;;;19.83;7.22;;;;;;;;;;5074552;28;20056;-63
2023/10/13 06:42:53;;;;;;;18.27;5.95;;;;;;;;;;5074282;28;20132;-65
2023/10/13 06:45:21;;;;;;;17.98;6.90;;;;;;;;;;5072115;28;20040;-66
2023/10/13 06:47:48;;;;;;;12.52;4.88;;;;;;;;;;5072068;28;20059;-66
2023/10/13 06:50:15;;;;;;;15.40;6.28;;;;;;;;;;5073403;28;20088;-65
2023/10/13 06:52:46;;;;;;;14.68;5.45;;;;;;;;;;5073007;28;20044;-66
2023/10/13 06:55:17;;;;;;;16.67;6.53;;;;;;;;;;5072446;28;20061;-64
2023/10/13 06:57:44;;;;;;;19.42;6.28;;;;;;;;;;5071886;28;20484;-67
2023/10/13 07:00:19;;;;;;;16.33;5.93;;;;;;;;;;5071888;28;20123;-66
2023/10/13 07:02:52;;;;;;;16.60;5.13;;;;;;;;;;5072001;28;20135;-66
2023/10/13 07:05:19;;;;;;;17.40;5.78;;;;;;;;;;5072683;28;20496;-65
2023/10/13 07:07:46;;;;;;;23.00;5.97;;;;;;;;;;5054978;28;20067;-65
2023/10/13 07:10:12;;;;;;;13.88;5.10;;;;;;;;;;5071683;28;20063;-65
2023/10/13 07:12:43;;;;;;;18.48;5.15;;;;;;;;;;5055367;28;20139;-64
2023/10/13 07:15:19;;;;;;;12.13;4.82;;;;;;;;;;5074619;28;20044;-64
2023/10/13 07:17:54;;;;;;;12.32;5.10;;;;;;;;;;5075682;28;20052;-64
2023/10/13 07:20:24;;;;;;;15.90;5.22;;;;;;;;;;5075544;28;20048;-65
2023/10/13 07:23:02;;;;;;;15.77;5.28;;;;;;;;;;5076384;28;20045;-66
2023/10/13 07:25:32;;;;;;;13.80;5.50;;;;;;;;;;5075217;28;20048;-65
2023/10/13 07:28:03;;;;;;;15.95;5.72;;;;;;;;;;5075114;28;20484;-65
2023/10/13 07:30:31;;;;;;;15.60;5.88;;;;;;;;;;5076618;28;20055;-66
2023/10/13 07:33:00;;;;;;;18.63;6.15;;;;;;;;;;5076187;28;20056;-65
2023/10/13 07:35:30;;;;;;;20.55;6.35;;;;;;;;;;5076125;28;20100;-65
2023/10/13 07:37:59;;;;;;;21.58;6.30;;;;;;;;;;5076551;28;20483;-65
2023/10/13 07:42:52;;;;;;;20.55;7.38;;;;;;;;;;5076117;28;20053;-66
2023/10/13 07:45:21;;;;;;;25.50;7.20;;;;;;;;;;5076148;28;20049;-65
2023/10/13 07:47:49;;;;;;;18.83;6.60;;;;;;;;;;5076817;28;20098;-65
2023/10/13 07:50:23;;;;;;;15.85;6.13;;;;;;;;;;5075981;28;20050;-65
2023/10/13 07:53:04;;;;;;;24.23;6.03;;;;;;;;;;5076701;28;20052;-64
2023/10/13 07:55:33;;;;;;;21.45;6.43;;;;;;;;;;5074871;28;20052;-67
2023/10/13 07:57:59;;;;;;;21.42;6.13;;;;;;;;;;5076154;28;20478;-67
2023/10/13 08:00:46;;;;;;;25.98;6.47;;;;;;;;;;5075145;28;20052;-64
2023/10/13 08:03:31;;;;;;;19.95;6.45;;;;;;;;;;5075762;28;20051;-65
2023/10/13 08:08:37;;;;;;;25.60;7.55;;;;;;;;;;5075834;28;20484;-66
2023/10/13 08:11:08;;;;;;;22.30;6.88;;;;;;;;;;5075500;28;20469;-66
2023/10/13 08:13:37;;;;;;;23.38;6.88;;;;;;;;;;5075258;28;20491;-64
2023/10/13 08:16:09;;;;;;;19.98;7.00;;;;;;;;;;5075621;28;20052;-67
2023/10/13 08:18:36;;;;;;;24.60;7.72;;;;;;;;;;5058748;28;20052;-66
2023/10/13 08:21:06;;;;;;;21.83;6.97;;;;;;;;;;5075509;28;20052;-70
2023/10/13 08:26:30;;;;;;;18.35;7.10;;;;;;;;;;5074230;28;20052;-66
2023/10/13 08:34:39;;;;;;;22.73;8.40;;;;;;;;;;5075681;28;20053;-66
2023/10/13 08:37:22;;;;;;;24.95;7.32;;;;;;;;;;5057389;28;20098;-66
2023/10/13 08:48:14;;;;;;;21.48;7.80;;;;;;;;;;5074801;28;20060;-67
2023/10/13 08:53:33;;;;;;;17.42;7.55;;;;;;;;;;5074745;28;20047;-65
2023/10/13 08:56:15;;;;;;;16.92;6.82;;;;;;;;;;5073479;28;20053;-67
2023/10/13 09:12:18;;;;;;;17.35;6.85;;;;;;;;;;5075632;28;20080;-66
2023/10/13 09:14:45;;;;;;;15.85;6.55;;;;;;;;;;5074317;28;20660;-66
2023/10/13 09:19:48;;;;;;;19.77;6.53;;;;;;;;;;5074670;28;20058;-67
2023/10/13 09:22:42;;;;;;;19.33;5.93;;;;;;;;;;5073166;28;20206;-68
2023/10/13 09:25:13;;;;;;;21.90;7.20;;;;;;;;;;5073619;28;20463;-68
2023/10/13 09:27:39;;;;;;;18.55;5.93;;;;;;;;;;5074119;28;20052;-67
2023/10/13 09:30:30;;;;;;;19.50;6.75;;;;;;;;;;5072899;28;20124;-69
2023/10/13 09:33:04;;;;;;;17.52;6.85;;;;;;;;;;5074104;28;20505;-68
2023/10/13 09:35:36;;;;;;;20.73;6.40;;;;;;;;;;5074079;28;20048;-68
2023/10/13 09:38:03;;;;;;;17.58;6.28;;;;;;;;;;5073697;28;20123;-67
2023/10/13 09:40:37;;;;;;;24.75;7.15;;;;;;;;;;5073954;28;20102;-67
2023/10/13 09:43:08;;;;;;;16.65;6.82;;;;;;;;;;5074258;28;20119;-67
2023/10/13 09:45:56;;;;;;;19.90;6.90;;;;;;;;;;5072678;28;20076;-67
2023/10/13 09:48:26;;;;;;;20.77;6.53;;;;;;;;;;5073472;28;20496;-69
2023/10/13 09:50:56;;;;;;;22.10;6.55;;;;;;;;;;5072652;28;20045;-65
2023/10/13 09:53:23;;;;;;;12.77;6.07;;;;;;;;;;5073725;28;20044;-67
2023/10/13 09:56:23;;;;;;;21.10;6.22;;;;;;;;;;5073359;28;20067;-68
2023/10/13 09:58:54;;;;;;;17.92;5.65;;;;;;;;;;5061738;28;20078;-66
2023/10/13 10:01:31;;;;;;;21.98;6.25;;;;;;;;;;5072482;28;20041;-68
2023/10/13 10:04:18;;;;;;;15.60;5.63;;;;;;;;;;5074173;28;20089;-68
2023/10/13 10:06:57;;;;;;;24.25;7.28;;;;;;;;;;5073540;28;20051;-68
2023/10/13 10:09:34;;;;;;;18.10;6.35;;;;;;;;;;5072274;28;20048;-67
2023/10/13 10:12:00;;;;;;;16.20;6.05;;;;;;;;;;5073495;28;20063;-68
2023/10/13 10:14:42;;;;;;;18.80;5.55;;;;;;;;;;5073892;28;20044;-66
2023/10/13 10:17:09;;;;;;;19.13;5.93;;;;;;;;;;5073653;28;20052;-69
2023/10/13 10:19:55;;;;;;;21.08;6.28;;;;;;;;;;5074061;28;20087;-67
2023/10/13 10:22:33;;;;;;;17.02;5.75;;;;;;;;;;5072262;28;20049;-68
2023/10/13 10:24:59;;;;;;;17.50;5.90;;;;;;;;;;5073851;28;20123;-67
2023/10/13 10:27:29;;;;;;;19.02;6.50;;;;;;;;;;5074449;28;20062;-69
2023/10/13 10:29:56;;;;;;;17.33;6.10;;;;;;;;;;5072455;28;20098;-69
2023/10/13 10:32:32;;;;;;;23.45;6.03;;;;;;;;;;5074136;28;20136;-69
2023/10/13 10:35:14;;;;;;;23.63;6.00;;;;;;;;;;5056325;28;20090;-68
2023/10/13 10:37:46;;;;;;;17.38;6.30;;;;;;;;;;5073266;28;20052;-68
2023/10/13 10:40:31;;;;;;;21.30;6.60;;;;;;;;;;5074176;28;20119;-68
2023/10/13 10:43:00;;;;;;;25.70;6.93;;;;;;;;;;5072128;28;20045;-68
2023/10/13 10:45:32;;;;;;;23.90;5.72;;;;;;;;;;5071807;28;20051;-67
2023/10/13 10:47:59;;;;;;;25.52;5.75;;;;;;;;;;5073819;28;20361;-70
2023/10/13 10:50:37;;;;;;;20.80;6.53;;;;;;;;;;5075055;28;20135;-68
2023/10/13 10:53:08;;;;;;;20.23;5.88;;;;;;;;;;5077972;28;20049;-68
2023/10/13 10:55:36;;;;;;;19.85;6.93;;;;;;;;;;5076738;28;20103;-67
2023/10/13 10:58:06;;;;;;;20.48;6.93;;;;;;;;;;5059601;28;20453;-67
2023/10/13 11:00:50;;;;;;;24.67;5.57;;;;;;;;;;5078000;28;20071;-70
2023/10/13 11:03:17;;;;;;;20.65;6.00;;;;;;;;;;5077586;28;20438;-69
2023/10/13 11:05:43;;;;;;;;;;;;;;;;;;5077414;28;20048;-70
2023/10/13 11:08:16;;;;;;;;;;;;;;;;;;5076083;28;19927;-68
2023/10/13 11:10:46;;;;;;;20.77;6.15;;;;;;;;;;5077402;28;19973;-68
2023/10/13 11:13:21;;;;;;;21.63;6.18;;;;;;;;;;5075797;28;20048;-66
2023/10/13 11:15:48;;;;;;;16.33;5.90;;;;;;;;;;5076155;28;20041;-67
2023/10/13 11:18:21;;;;;;;24.00;6.50;;;;;;;;;;5076776;28;20091;-68
2023/10/13 11:20:53;;;;;;;22.85;6.05;;;;;;;;;;5077013;28;20048;-69
2023/10/13 11:23:25;;;;;;;25.08;6.25;;;;;;;;;;5077382;28;20052;-69
2023/10/13 11:26:00;;;;;;;21.55;5.80;;;;;;;;;;5076889;28;20040;-67
2023/10/13 11:28:34;;;;;;;18.13;5.85;;;;;;;;;;5076626;28;20045;-68
2023/10/13 11:31:04;;;;;;;18.23;6.30;;;;;;;;;;5075968;28;20044;-68
2023/10/13 11:33:31;;;;;;;21.55;6.22;;;;;;;;;;5076289;28;20048;-68
2023/10/13 11:35:58;;;;;;;21.20;6.80;;;;;;;;;;5075505;28;20534;-68
2023/10/13 11:43:44;;;;;;;23.73;5.95;;;;;;;;;;5077667;28;20457;-68
2023/10/13 11:48:41;;;;;;;27.67;6.80;;;;;;;;;;5076124;28;20053;-68
2023/10/13 11:51:08;;;;;;;24.40;5.93;;;;;;;;;;5076028;28;20765;-66
2023/10/13 11:53:37;;;;;;;21.10;6.57;;;;;;;;;;5075716;28;20500;-68
2023/10/13 11:56:09;;;;;;;27.42;6.45;;;;;;;;;;5075643;28;20048;-66
2023/10/13 11:58:38;;;;;;;23.42;6.35;;;;;;;;;;5074249;28;20052;-66
2023/10/13 12:09:52;;;;;;;18.27;6.15;;;;;;;;;;5074797;28;20544;-67
2023/10/13 12:11:48;;;;;;;;;;;;;;;;;;5067817;28;20060;-68
2023/10/13 12:16:51;;;;;;;25.67;6.57;;;;;;;;;;5075908;28;20393;-66
2023/10/13 12:19:24;;;;;;;17.45;5.43;;;;;;;;;;5075619;28;20049;-67
2023/10/13 12:21:56;;;;;;;13.23;5.40;;;;;;;;;;5076249;28;20049;-66
2023/10/13 12:24:39;;;;;;;19.23;6.30;;;;;;;;;;5074879;28;20047;-67
2023/10/13 12:27:18;;;;;;;18.73;6.90;;;;;;;;;;5075485;28;20084;-67
2023/10/13 12:29:52;;;;;;;16.30;5.82;;;;;;;;;;5075980;28;20056;-67
2023/10/13 12:32:24;;;;;;;16.23;6.20;;;;;;;;;;5075396;28;20056;-67
2023/10/13 12:48:56;;;;;;;21.38;6.07;;;;;;;;;;5075007;28;20052;-70
2023/10/13 12:54:04;;;;;;;21.38;6.65;;;;;;;;;;5074706;28;20334;-66
2023/10/13 12:56:30;;;;;;;26.45;5.95;;;;;;;;;;5075276;28;20057;-66
2023/10/13 12:58:56;;;;;;;21.42;5.68;;;;;;;;;;5074703;28;20497;-70
2023/10/13 13:01:24;;;;;;;21.15;5.95;;;;;;;;;;5057331;28;20045;-68
2023/10/13 13:03:55;;;;;;;25.00;6.57;;;;;;;;;;5074576;28;20071;-68
2023/10/13 13:06:25;;;;;;;18.83;5.70;;;;;;;;;;5073681;28;20079;-66
2023/10/13 13:08:54;;;;;;;22.10;6.38;;;;;;;;;;5075024;28;20358;-67
2023/10/13 13:11:21;;;;;;;24.33;6.25;;;;;;;;;;5074453;28;20051;-67
2023/10/13 13:13:47;;;;;;;23.75;6.63;;;;;;;;;;5073763;28;20090;-67
2023/10/13 13:16:14;;;;;;;22.25;6.60;;;;;;;;;;5074502;28;20048;-67
2023/10/13 13:18:40;;;;;;;23.35;6.20;;;;;;;;;;5073054;28;20050;-67
2023/10/13 13:21:06;;;;;;;22.40;6.13;;;;;;;;;;5107168;28;20131;-66
2023/10/13 13:23:34;;;;;;;21.45;6.38;;;;;;;;;;5073164;28;20044;-66
2023/10/13 13:26:01;;;;;;;13.98;5.60;;;;;;;;;;5074852;28;20052;-67
2023/10/13 13:28:37;;;;;;;21.63;6.70;;;;;;;;;;5074308;28;20052;-66
2023/10/13 13:31:07;;;;;;;22.88;6.05;;;;;;;;;;5072985;28;20053;-66
2023/10/13 13:33:38;;;;;;;23.95;6.30;;;;;;;;;;5074522;28;20432;-67
2023/10/13 13:36:05;;;;;;;18.60;6.10;;;;;;;;;;5074906;28;20438;-66
2023/10/13 13:38:32;;;;;;;20.30;5.75;;;;;;;;;;5074120;28;20173;-67
2023/10/13 13:40:58;;;;;;;15.85;5.47;;;;;;;;;;5074085;28;20049;-66
2023/10/13 13:46:09;;;;;;;27.75;6.82;;;;;;;;;;5074850;28;20044;-67
2023/10/13 13:48:40;;;;;;;23.17;6.32;;;;;;;;;;5072794;28;20516;-69
2023/10/13 13:51:19;;;;;;;19.67;6.68;;;;;;;;;;5073539;28;20044;-67
2023/10/13 13:53:47;;;;;;;22.75;6.43;;;;;;;;;;5074430;28;20053;-69
2023/10/13 13:56:18;;;;;;;23.25;6.70;;;;;;;;;;5073854;28;20071;-68
2023/10/13 13:58:48;;;;;;;23.02;6.72;;;;;;;;;;5072997;28;20077;-66
2023/10/13 14:01:15;;;;;;;23.58;7.22;;;;;;;;;;5072862;28;20137;-70
2023/10/13 14:03:45;;;;;;;20.45;6.53;;;;;;;;;;5073610;28;20500;-68
2023/10/13 14:06:32;;;;;;;19.25;7.18;;;;;;;;;;5072988;28;20053;-69
2023/10/13 14:09:14;;;;;;;19.85;6.20;;;;;;;;;;5076609;28;20382;-74
2023/10/13 14:14:29;;;;;;;23.45;6.70;;;;;;;;;;5073679;28;20053;-68
2023/10/13 14:17:08;;;;;;;31.80;7.72;;;;;;;;;;5074189;28;20058;-67
2023/10/13 14:19:34;;;;;;;27.70;7.63;;;;;;;;;;5073267;28;20048;-70
2023/10/13 14:22:06;;;;;;;22.83;7.28;;;;;;;;;;5073424;28;20044;-69
2023/10/13 14:24:33;;;;;;;25.95;7.82;;;;;;;;;;5072417;28;20084;-66
2023/10/13 14:27:07;;;;;;;;;;;;;;;;;;5073847;28;20049;-71
2023/10/13 14:29:33;;;;;;;25.40;7.55;;;;;;;;;;5073506;28;19966;-67
2023/10/13 14:31:59;;;;;;;21.98;7.47;;;;;;;;;;5073265;28;20044;-67
2023/10/13 14:34:26;;;;;;;22.65;7.30;;;;;;;;;;5056262;28;20051;-67
2023/10/13 14:36:54;;;;;;;27.10;7.78;;;;;;;;;;5072022;28;20048;-74
2023/10/13 14:39:21;;;;;;;23.95;7.97;;;;;;;;;;5073123;28;20496;-69
2023/10/13 14:41:47;;;;;;;23.38;7.25;;;;;;;;;;5073393;28;20396;-72
2023/10/13 14:44:13;;;;;;;;;;;;;;;;;;5074123;28;20040;-67
2023/10/13 14:46:39;;;;;;;28.73;8.00;;;;;;;;;;5073283;28;19943;-67
2023/10/13 14:49:07;;;;;;;24.48;6.82;;;;;;;;;;5073102;28;20170;-69
2023/10/13 14:51:33;;;;;;;23.45;6.82;;;;;;;;;;5073138;28;20049;-69
2023/10/13 14:53:59;;;;;;;28.90;7.78;;;;;;;;;;5073004;28;20048;-68
2023/10/13 14:56:26;;;;;;;25.33;8.35;;;;;;;;;;5073659;28;20053;-68
2023/10/13 14:58:53;;;;;;;27.92;8.73;;;;;;;;;;5071865;28;20374;-69
2023/10/13 15:01:20;;;;;;;28.80;9.40;;;;;;;;;;5073019;28;20056;-70
2023/10/13 15:03:54;;;;;;;25.80;9.20;;;;;;;;;;5072083;28;20057;-69
2023/10/13 15:06:24;;;;;;;26.17;9.10;;;;;;;;;;5073391;28;20366;-70
2023/10/13 15:08:51;;;;;;;25.27;9.40;;;;;;;;;;5073046;28;20464;-73
2023/10/13 15:11:20;;;;;;;23.50;8.23;;;;;;;;;;5072876;28;20074;-69
2023/10/13 15:13:50;;;;;;;22.30;8.13;;;;;;;;;;5072917;28;20048;-68
2023/10/13 15:16:17;;;;;;;27.65;8.07;;;;;;;;;;5072983;28;20049;-71
2023/10/13 15:18:45;;;;;;;30.63;8.48;;;;;;;;;;5072915;28;20051;-72
2023/10/13 15:21:12;;;;;;;31.45;8.45;;;;;;;;;;5072459;28;20556;-71
2023/10/13 15:23:42;;;;;;;24.75;8.10;;;;;;;;;;5072903;28;20048;-68
2023/10/13 15:26:14;;;;;;;27.77;8.45;;;;;;;;;;5072748;28;20101;-70
2023/10/13 15:28:53;;;;;;;22.30;8.73;;;;;;;;;;5071650;28;20048;-70
2023/10/13 15:34:06;;;;;;;29.58;9.27;;;;;;;;;;5072430;28;20051;-69
2023/10/13 15:36:32;;;;;;;28.85;8.90;;;;;;;;;;5057582;28;20484;-69
2023/10/13 15:38:58;;;;;;;27.27;8.60;;;;;;;;;;5076357;28;20098;-68
2023/10/13 15:41:25;;;;;;;24.90;8.00;;;;;;;;;;5076014;28;20056;-69
2023/10/13 15:43:52;;;;;;;23.23;8.57;;;;;;;;;;5075077;28;20051;-69
2023/10/13 15:46:18;;;;;;;;;;;;;;;;;;5076870;28;20051;-69
2023/10/13 15:48:47;;;;;;;21.95;7.38;;;;;;;;;;5058631;28;19920;-68
2023/10/13 15:51:13;;;;;;;18.67;6.53;;;;;;;;;;5059151;28;20080;-67
2023/10/13 15:53:39;;;;;;;22.77;7.05;;;;;;;;;;5074900;28;20489;-68
2023/10/13 15:56:12;;;;;;;17.52;6.38;;;;;;;;;;5076754;28;20087;-66
2023/10/13 15:58:58;;;;;;;20.67;6.05;;;;;;;;;;5076263;28;20052;-71
2023/10/13 16:01:28;;;;;;;20.23;5.93;;;;;;;;;;5076102;28;20044;-68
2023/10/13 16:03:53;;;;;;;;;;;;;;;;;;5075329;28;20122;-72
2023/10/13 16:06:21;;;;;;;17.67;5.95;;;;;;;;;;5075107;28;19924;-66
2023/10/13 16:08:51;;;;;;;19.98;7.05;;;;;;;;;;5075813;28;20052;-70
2023/10/13 16:11:20;;;;;;;26.92;7.78;;;;;;;;;;5075718;28;20056;-66
2023/10/13 16:13:46;;;;;;;31.95;8.73;;;;;;;;;;5074427;28;20136;-66
2023/10/13 16:16:16;;;;;;;25.25;9.65;;;;;;;;;;5074390;28;20150;-70
2023/10/13 16:18:44;;;;;;;34.08;9.30;;;;;;;;;;5074910;28;20045;-67
2023/10/13 16:21:12;;;;;;;28.65;10.15;;;;;;;;;;5075070;28;20488;-68
2023/10/13 16:23:48;;;;;;;30.27;9.73;;;;;;;;;;5075905;28;20091;-68
2023/10/13 16:26:14;;;;;;;25.38;8.63;;;;;;;;;;5075806;28;20074;-68
2023/10/13 16:28:40;;;;;;;24.70;9.27;;;;;;;;;;5057580;28;20092;-67
2023/10/13 16:31:10;;;;;;;21.52;7.90;;;;;;;;;;5074389;28;20048;-68
2023/10/13 16:33:36;;;;;;;24.38;8.75;;;;;;;;;;5075464;28;20084;-67
2023/10/13 16:36:08;;;;;;;28.35;8.50;;;;;;;;;;5075805;28;20055;-70
2023/10/13 16:38:37;;;;;;;36.25;9.23;;;;;;;;;;5078732;28;20056;-71
2023/10/13 16:41:08;;;;;;;20.10;8.30;;;;;;;;;;5077005;28;20044;-69
2023/10/13 16:43:35;;;;;;;32.50;9.63;;;;;;;;;;5074464;28;20055;-70
2023/10/13 16:46:06;;;;;;;33.80;8.70;;;;;;;;;;5074790;28;20519;-68
2023/10/13 16:48:35;;;;;;;26.98;9.27;;;;;;;;;;5073992;28;20094;-70
2023/10/13 16:51:01;;;;;;;23.33;8.32;;;;;;;;;;5074848;28;20041;-71
2023/10/13 16:53:27;;;;;;;29.73;8.47;;;;;;;;;;5074780;28;20052;-69
2023/10/13 16:55:53;;;;;;;22.67;7.53;;;;;;;;;;5075224;28;20453;-67
2023/10/13 16:58:20;;;;;;;26.40;8.38;;;;;;;;;;5073958;28;20048;-69
2023/10/13 17:00:51;;;;;;;21.45;7.55;;;;;;;;;;5073275;28;20131;-70
2023/10/13 17:03:25;;;;;;;21.23;6.57;;;;;;;;;;5074462;28;20048;-70
2023/10/13 17:05:51;;;;;;;22.50;6.55;;;;;;;;;;5074609;28;20048;-71
2023/10/13 17:08:17;;;;;;;17.90;5.83;;;;;;;;;;5073930;28;20388;-68
2023/10/13 17:10:43;;;;;;;16.75;6.40;;;;;;;;;;5074431;28;20048;-70
2023/10/13 17:13:09;;;;;;;24.80;5.65;;;;;;;;;;5074238;28;20102;-70
2023/10/13 17:15:36;;;;;;;21.40;7.03;;;;;;;;;;5074207;28;20051;-71
2023/10/13 17:18:05;;;;;;;;;;;;;;;;;;5075240;28;20385;-69
2023/10/13 17:20:38;;;;;;;18.90;6.15;;;;;;;;;;5074133;28;20287;-70
2023/10/13 17:23:06;;;;;;;20.67;7.40;;;;;;;;;;5073780;28;20516;-72
2023/10/13 17:25:32;;;;;;;29.65;6.68;;;;;;;;;;5074990;28;20401;-71
2023/10/13 17:27:59;;;;;;;23.17;7.15;;;;;;;;;;5073466;28;20053;-68
2023/10/13 17:30:25;;;;;;;23.65;7.63;;;;;;;;;;5073820;28;20094;-69
2023/10/13 17:32:51;;;;;;;23.98;8.43;;;;;;;;;;5074003;28;20052;-69
2023/10/13 17:35:17;;;;;;;22.20;8.17;;;;;;;;;;5073651;28;20476;-71
2023/10/13 17:37:43;;;;;;;24.87;8.50;;;;;;;;;;5106690;28;20048;-68
2023/10/13 17:40:16;;;;;;;26.90;8.97;;;;;;;;;;5073801;28;20337;-70
2023/10/13 17:42:43;;;;;;;21.17;8.35;;;;;;;;;;5074289;28;20271;-71
2023/10/13 17:45:13;;;;;;;29.38;9.52;;;;;;;;;;5073651;28;20076;-70
2023/10/13 17:47:39;;;;;;;30.92;9.95;;;;;;;;;;5073950;28;20503;-69
2023/10/13 17:50:09;;;;;;;27.85;9.70;;;;;;;;;;5055740;28;20140;-69
2023/10/13 17:52:44;;;;;;;27.38;9.73;;;;;;;;;;5073828;28;20454;-71
2023/10/13 17:55:11;;;;;;;30.08;9.20;;;;;;;;;;5072289;28;20061;-70
2023/10/13 17:57:37;;;;;;;44.65;15.90;;;;;;;;;;5073001;28;20048;-72
2023/10/13 18:00:10;;;;;;;31.05;9.63;;;;;;;;;;5073389;28;20136;-70
2023/10/13 18:02:36;;;;;;;33.30;11.98;;;;;;;;;;5073354;28;20048;-71
2023/10/13 18:05:02;;;;;;;42.65;16.40;;;;;;;;;;5072435;28;20101;-69
2023/10/13 18:07:29;;;;;;;42.17;13.60;;;;;;;;;;5073266;28;20048;-70
2023/10/13 18:09:55;;;;;;;26.20;9.43;;;;;;;;;;5073431;28;20048;-70
2023/10/13 18:12:22;;;;;;;27.83;10.55;;;;;;;;;;5072555;28;20135;-71
2023/10/13 18:14:50;;;;;;;;;;;;;;;;;;5073670;28;20043;-70
2023/10/13 18:17:16;;;;;;;41.05;12.25;;;;;;;;;;5072451;28;20366;-70
2023/10/13 18:19:43;;;;;;;30.55;10.88;;;;;;;;;;5055983;28;20361;-71
2023/10/13 18:22:15;;;;;;;23.38;9.00;;;;;;;;;;5073251;28;20404;-70